createdAt,value
2017-11-15T00:01:14.686Z,2.27
2017-11-15T00:03:41.339Z,3.10
2017-11-15T00:06:07.990Z,2.70
2017-11-15T00:08:34.641Z,1.77
2017-11-15T00:11:01.325Z,3.23
2017-11-15T00:13:28.214Z,2.13
2017-11-15T00:15:55.241Z,2.77
2017-11-15T00:18:21.905Z,1.77
2017-11-15T00:20:48.536Z,2.10
2017-11-15T00:23:15.216Z,2.50
2017-11-15T00:25:41.864Z,3.03
2017-11-15T00:28:08.517Z,2.53
2017-11-15T00:30:35.146Z,2.37
2017-11-15T00:33:01.809Z,2.03
2017-11-15T00:35:29.202Z,2.00
2017-11-15T00:37:56.204Z,2.30
2017-11-15T00:40:23.000Z,1.93
2017-11-15T00:42:49.646Z,2.23
2017-11-15T00:45:16.320Z,1.90
2017-11-15T00:47:43.052Z,2.67
2017-11-15T00:50:09.701Z,2.10
2017-11-15T00:52:36.332Z,2.70
2017-11-15T00:55:02.985Z,2.53
2017-11-15T00:57:29.767Z,1.87
2017-11-15T00:59:56.642Z,2.00
2017-11-15T01:02:23.360Z,2.00
2017-11-15T01:04:50.014Z,2.00
2017-11-15T01:07:16.661Z,2.43
2017-11-15T01:09:43.308Z,2.27
2017-11-15T01:12:09.962Z,2.13
2017-11-15T01:14:36.597Z,2.53
2017-11-15T01:17:03.254Z,2.13
2017-11-15T01:19:29.914Z,2.23
2017-11-15T01:21:56.708Z,2.00
2017-11-15T01:24:23.438Z,2.53
2017-11-15T01:26:50.182Z,2.50
2017-11-15T01:29:16.850Z,1.80
2017-11-15T01:31:43.509Z,2.20
2017-11-15T01:34:10.233Z,3.57
2017-11-15T01:36:36.862Z,2.17
2017-11-15T01:39:03.513Z,2.20
2017-11-15T01:41:30.165Z,2.57
2017-11-15T01:43:58.310Z,2.87
2017-11-15T01:46:25.152Z,2.20
2017-11-15T01:48:51.806Z,1.93
2017-11-15T01:51:18.459Z,2.60
2017-11-15T01:53:45.118Z,2.00
2017-11-15T01:56:11.789Z,2.03
2017-11-15T01:58:38.420Z,2.23
2017-11-15T02:01:11.086Z,2.10
2017-11-15T02:03:37.717Z,2.63
2017-11-15T02:06:04.370Z,2.13
2017-11-15T02:08:31.018Z,2.27
2017-11-15T02:10:58.286Z,2.13
2017-11-15T02:13:25.013Z,2.53
2017-11-15T02:15:51.689Z,2.07
2017-11-15T02:18:18.341Z,1.80
2017-11-15T02:20:44.981Z,2.13
2017-11-15T02:23:11.633Z,1.80
2017-11-15T02:25:38.265Z,2.00
2017-11-15T02:28:04.925Z,2.23
2017-11-15T02:30:31.618Z,1.70
2017-11-15T02:32:58.324Z,1.87
2017-11-15T02:35:25.253Z,1.73
2017-11-15T02:37:51.961Z,2.00
2017-11-15T02:40:18.932Z,2.00
2017-11-15T02:42:45.685Z,1.77
2017-11-15T02:45:12.335Z,2.73
2017-11-15T02:47:38.974Z,1.70
2017-11-15T02:50:05.621Z,1.70
2017-11-15T02:52:32.259Z,2.37
2017-11-15T02:54:58.966Z,1.70
2017-11-15T02:57:25.653Z,3.10
2017-11-15T02:59:52.429Z,2.03
2017-11-15T03:02:19.083Z,1.77
2017-11-15T03:04:45.725Z,2.73
2017-11-15T03:07:12.500Z,1.80
2017-11-15T03:09:39.239Z,2.00
2017-11-15T03:12:05.985Z,2.10
2017-11-15T03:14:32.617Z,1.53
2017-11-15T03:16:59.331Z,2.17
2017-11-15T03:19:26.413Z,1.70
2017-11-15T03:21:53.143Z,2.50
2017-11-15T03:24:19.866Z,3.73
2017-11-15T03:26:46.543Z,3.57
2017-11-15T03:29:13.203Z,2.47
2017-11-15T03:31:39.910Z,6.57
2017-11-15T03:34:06.683Z,8.30
2017-11-15T03:36:33.365Z,7.83
2017-11-15T03:39:00.018Z,25.88
2017-11-15T03:41:26.660Z,32.43
2017-11-15T03:43:53.360Z,47.63
2017-11-15T03:46:20.214Z,53.27
2017-11-15T03:48:47.265Z,45.23
2017-11-15T03:51:13.937Z,43.33
2017-11-15T03:53:40.573Z,39.00
2017-11-15T03:56:07.249Z,46.93
2017-11-15T03:58:33.900Z,46.77
2017-11-15T04:01:00.641Z,34.73
2017-11-15T04:03:27.294Z,28.00
2017-11-15T04:05:53.945Z,23.37
2017-11-15T04:08:20.632Z,31.63
2017-11-15T04:10:47.545Z,24.73
2017-11-15T04:13:14.206Z,21.00
2017-11-15T04:15:40.854Z,28.60
2017-11-15T04:18:07.554Z,22.60
2017-11-15T04:20:34.192Z,22.17
2017-11-15T04:23:00.848Z,22.33
2017-11-15T04:25:27.553Z,21.73
2017-11-15T04:27:54.296Z,18.37
2017-11-15T04:30:21.081Z,27.63
2017-11-15T04:32:49.458Z,15.60
2017-11-15T04:35:16.334Z,20.47
2017-11-15T04:37:43.057Z,17.10
2017-11-15T04:40:09.730Z,15.43
2017-11-15T04:42:36.402Z,16.73
2017-11-15T04:45:03.059Z,22.17
2017-11-15T04:47:29.702Z,18.03
2017-11-15T04:49:56.358Z,20.33
2017-11-15T04:52:23.077Z,17.53
2017-11-15T04:54:59.654Z,13.83
2017-11-15T04:57:26.294Z,14.07
2017-11-15T04:59:53.004Z,17.00
2017-11-15T05:02:19.723Z,13.60
2017-11-15T05:04:46.838Z,20.73
2017-11-15T05:07:13.475Z,14.33
2017-11-15T05:09:40.149Z,13.30
2017-11-15T05:12:06.824Z,18.73
2017-11-15T05:14:33.469Z,13.93
2017-11-15T05:17:00.130Z,11.07
2017-11-15T05:19:26.769Z,14.63
2017-11-15T05:21:53.689Z,15.50
2017-11-15T05:24:20.937Z,18.83
2017-11-15T05:26:47.826Z,14.00
2017-11-15T05:29:14.493Z,10.90
2017-11-15T05:31:41.361Z,12.83
2017-11-15T05:34:08.042Z,11.67
2017-11-15T05:36:34.699Z,14.47
2017-11-15T05:41:45.674Z,13.93
2017-11-15T05:44:12.327Z,12.07
2017-11-15T05:46:38.961Z,14.80
2017-11-15T05:49:05.627Z,11.20
2017-11-15T05:51:32.265Z,15.63
2017-11-15T05:53:58.942Z,10.80
2017-11-15T05:56:25.594Z,11.53
2017-11-15T05:58:52.454Z,13.13
2017-11-15T06:01:19.326Z,13.70
2017-11-15T06:03:46.033Z,13.17
2017-11-15T06:06:12.808Z,11.93
2017-11-15T06:08:39.474Z,12.60
2017-11-15T06:11:06.233Z,11.87
2017-11-15T06:13:32.927Z,11.30
2017-11-15T06:15:59.715Z,12.20
2017-11-15T06:18:26.557Z,13.70
2017-11-15T06:20:53.187Z,9.40
2017-11-15T06:23:20.281Z,13.13
2017-11-15T06:25:46.984Z,14.33
2017-11-15T06:28:13.751Z,12.63
2017-11-15T06:30:40.416Z,11.70
2017-11-15T06:33:07.139Z,11.93
2017-11-15T06:35:33.664Z,10.07
2017-11-15T06:38:00.385Z,11.57
2017-11-15T06:40:27.021Z,12.07
2017-11-15T06:42:53.706Z,7.87
2017-11-15T06:45:20.404Z,9.37
2017-11-15T06:47:47.138Z,14.20
2017-11-15T06:50:13.805Z,11.40
2017-11-15T06:52:40.436Z,8.57
2017-11-15T06:55:07.135Z,8.53
2017-11-15T06:57:33.811Z,10.37
2017-11-15T07:00:00.677Z,11.20
2017-11-15T07:02:27.406Z,13.37
2017-11-15T07:04:54.067Z,8.50
2017-11-15T07:07:20.724Z,9.53
2017-11-15T07:09:48.185Z,8.60
2017-11-15T07:12:14.830Z,11.77
2017-11-15T07:14:41.466Z,9.30
2017-11-15T07:17:08.118Z,8.10
2017-11-15T07:19:34.758Z,11.50
2017-11-15T07:22:01.415Z,9.87
2017-11-15T07:24:28.051Z,6.93
2017-11-15T07:26:54.713Z,10.50
2017-11-15T07:29:21.365Z,6.93
2017-11-15T07:31:48.034Z,6.17
2017-11-15T07:34:14.674Z,9.27
2017-11-15T07:36:41.342Z,8.50
2017-11-15T07:39:07.994Z,10.20
2017-11-15T07:41:34.631Z,9.20
2017-11-15T07:44:01.296Z,6.90
2017-11-15T07:46:28.045Z,9.60
2017-11-15T07:48:54.698Z,9.37
2017-11-15T07:51:21.351Z,7.10
2017-11-15T07:53:48.018Z,8.60
2017-11-15T07:56:14.654Z,8.70
2017-11-15T07:58:41.402Z,6.23
2017-11-15T08:01:08.042Z,7.97
2017-11-15T08:03:34.693Z,8.67
2017-11-15T08:06:01.346Z,6.23
2017-11-15T08:08:28.003Z,7.87
2017-11-15T08:10:54.662Z,8.50
2017-11-15T08:13:21.309Z,7.10
2017-11-15T08:15:48.011Z,9.87
2017-11-15T08:18:14.719Z,8.40
2017-11-15T08:20:41.466Z,6.80
2017-11-15T08:23:08.214Z,5.67
2017-11-15T08:25:34.865Z,8.33
2017-11-15T08:28:01.617Z,5.20
2017-11-15T08:30:28.254Z,5.97
2017-11-15T08:32:54.910Z,6.80
2017-11-15T08:35:21.574Z,7.50
2017-11-15T08:37:48.246Z,7.33
2017-11-15T08:40:14.978Z,9.17
2017-11-15T08:42:41.730Z,8.70
2017-11-15T08:45:08.380Z,8.20
2017-11-15T08:47:35.593Z,6.73
2017-11-15T08:50:02.243Z,7.30
2017-11-15T08:52:28.883Z,5.70
2017-11-15T08:54:55.532Z,7.10
2017-11-15T08:57:22.254Z,8.00
2017-11-15T08:59:49.001Z,5.80
2017-11-15T09:02:15.647Z,9.20
2017-11-15T09:04:42.302Z,5.60
2017-11-15T09:07:08.973Z,6.83
2017-11-15T09:09:35.630Z,7.73
2017-11-15T09:12:02.271Z,6.60
2017-11-15T09:14:29.002Z,9.97
2017-11-15T09:16:55.630Z,7.83
2017-11-15T09:19:22.302Z,6.83
2017-11-15T09:21:49.081Z,5.80
2017-11-15T09:24:15.734Z,7.37
2017-11-15T09:26:42.374Z,6.60
2017-11-15T09:29:09.031Z,6.50
2017-11-15T09:31:35.668Z,7.00
2017-11-15T09:34:02.369Z,11.30
2017-11-15T09:36:29.069Z,9.30
2017-11-15T09:38:55.716Z,8.87
2017-11-15T09:41:22.365Z,11.10
2017-11-15T09:43:49.031Z,6.40
2017-11-15T09:46:15.707Z,9.13
2017-11-15T09:48:42.431Z,7.10
2017-11-15T09:51:09.177Z,6.03
2017-11-15T09:53:35.818Z,4.83
2017-11-15T09:56:02.487Z,6.07
2017-11-15T09:58:29.124Z,6.27
2017-11-15T10:00:55.780Z,8.07
2017-11-15T10:03:22.421Z,7.10
2017-11-15T10:05:49.083Z,8.40
2017-11-15T10:08:15.719Z,5.47
2017-11-15T10:10:42.414Z,7.07
2017-11-15T10:13:09.051Z,7.50
2017-11-15T10:15:35.785Z,6.87
2017-11-15T10:18:02.432Z,8.53
2017-11-15T10:20:29.134Z,9.20
2017-11-15T10:22:55.769Z,6.97
2017-11-15T10:25:22.428Z,5.43
2017-11-15T10:27:49.067Z,6.70
2017-11-15T10:30:15.719Z,6.10
2017-11-15T10:32:42.376Z,7.73
2017-11-15T10:35:09.090Z,7.13
2017-11-15T10:37:35.734Z,6.53
2017-11-15T10:40:02.422Z,7.10
2017-11-15T10:42:29.049Z,5.67
2017-11-15T10:44:55.800Z,8.50
2017-11-15T10:47:22.453Z,6.50
2017-11-15T10:49:49.106Z,7.30
2017-11-15T10:52:15.755Z,6.90
2017-11-15T10:54:42.507Z,8.10
2017-11-15T10:57:09.137Z,7.37
2017-11-15T10:59:35.814Z,7.80
2017-11-15T11:02:02.471Z,8.13
2017-11-15T11:04:29.131Z,7.43
2017-11-15T11:06:55.857Z,7.20
2017-11-15T11:09:22.509Z,7.87
2017-11-15T11:11:49.153Z,6.80
2017-11-15T11:14:15.794Z,7.70
2017-11-15T11:16:42.468Z,9.00
2017-11-15T11:19:09.111Z,5.80
2017-11-15T11:21:35.761Z,6.37
2017-11-15T11:24:02.394Z,6.20
2017-11-15T11:26:29.054Z,8.43
2017-11-15T11:28:55.703Z,5.87
2017-11-15T11:31:22.586Z,5.07
2017-11-15T11:33:49.218Z,8.83
2017-11-15T11:36:15.973Z,7.77
2017-11-15T11:38:42.612Z,8.50
2017-11-15T11:41:09.281Z,4.00
2017-11-15T11:43:35.935Z,5.57
2017-11-15T11:46:02.591Z,3.80
2017-11-15T11:48:29.227Z,4.63
2017-11-15T11:50:55.990Z,5.30
2017-11-15T11:53:22.630Z,7.70
2017-11-15T11:55:49.262Z,6.30
2017-11-15T11:58:15.927Z,6.27
2017-11-15T12:00:42.584Z,5.43
2017-11-15T12:03:09.235Z,5.60
2017-11-15T12:05:35.877Z,5.10
2017-11-15T12:08:02.534Z,5.00
2017-11-15T12:10:29.166Z,6.50
2017-11-15T12:12:55.821Z,5.83
2017-11-15T12:15:22.455Z,4.83
2017-11-15T12:17:49.147Z,5.83
2017-11-15T12:20:15.805Z,6.20
2017-11-15T12:22:42.459Z,7.10
2017-11-15T12:25:09.123Z,6.43
2017-11-15T12:27:35.859Z,5.47
2017-11-15T12:30:02.539Z,5.67
2017-11-15T12:32:29.180Z,6.40
2017-11-15T12:34:55.897Z,4.30
2017-11-15T12:37:22.659Z,5.40
2017-11-15T12:39:49.312Z,3.90
2017-11-15T12:42:15.969Z,5.53
2017-11-15T12:44:42.622Z,8.67
2017-11-15T12:47:09.368Z,6.40
2017-11-15T12:49:36.007Z,5.10
2017-11-15T12:52:02.671Z,4.20
2017-11-15T12:54:29.417Z,5.27
2017-11-15T12:56:56.053Z,5.30
2017-11-15T12:59:22.707Z,5.13
2017-11-15T13:01:49.343Z,5.60
2017-11-15T13:04:16.003Z,5.00
2017-11-15T13:06:42.653Z,10.33
2017-11-15T13:09:09.319Z,5.60
2017-11-15T13:11:35.969Z,4.70
2017-11-15T13:14:02.686Z,6.03
2017-11-15T13:16:29.490Z,4.90
2017-11-15T13:18:56.155Z,5.63
2017-11-15T13:21:22.794Z,8.40
2017-11-15T13:23:49.426Z,5.87
2017-11-15T13:26:16.181Z,4.77
2017-11-15T13:28:42.824Z,4.83
2017-11-15T13:31:09.478Z,5.50
2017-11-15T13:33:36.136Z,4.43
2017-11-15T13:36:02.797Z,6.67
2017-11-15T13:38:29.440Z,5.23
2017-11-15T13:40:56.190Z,4.60
2017-11-15T13:43:22.821Z,7.70
2017-11-15T13:45:49.494Z,7.77
2017-11-15T13:48:16.134Z,5.43
2017-11-15T13:50:42.803Z,3.97
2017-11-15T13:53:09.474Z,4.40
2017-11-15T13:55:36.122Z,4.93
2017-11-15T13:58:02.854Z,4.90
2017-11-15T14:00:29.492Z,3.83
2017-11-15T14:02:56.155Z,4.47
2017-11-15T14:05:22.810Z,7.40
2017-11-15T14:07:49.563Z,6.07
2017-11-15T14:10:16.230Z,4.67
2017-11-15T14:12:42.923Z,5.53
2017-11-15T14:15:09.557Z,4.80
2017-11-15T14:17:36.226Z,4.30
2017-11-15T14:20:02.914Z,4.87
2017-11-15T14:22:29.546Z,6.27
2017-11-15T14:24:56.213Z,5.60
2017-11-15T14:27:22.889Z,5.33
2017-11-15T14:29:49.548Z,4.20
2017-11-15T14:32:16.203Z,6.13
2017-11-15T14:34:42.861Z,5.90
2017-11-15T14:37:09.569Z,5.90
2017-11-15T14:39:36.220Z,5.00
2017-11-15T14:42:02.861Z,4.40
2017-11-15T14:44:29.550Z,5.17
2017-11-15T14:46:56.190Z,4.70
2017-11-15T14:49:22.853Z,5.90
2017-11-15T14:51:49.682Z,8.80
2017-11-15T14:54:16.313Z,5.93
2017-11-15T14:56:42.986Z,4.60
2017-11-15T14:59:09.627Z,5.23
2017-11-15T15:01:36.287Z,6.30
2017-11-15T15:04:02.932Z,5.23
2017-11-15T15:06:29.596Z,7.37
2017-11-15T15:08:56.230Z,5.13
2017-11-15T15:11:22.878Z,3.87
2017-11-15T15:13:49.509Z,3.70
2017-11-15T15:16:16.258Z,5.07
2017-11-15T15:18:42.905Z,4.40
2017-11-15T15:21:09.915Z,5.47
2017-11-15T15:23:36.553Z,3.67
2017-11-15T15:26:03.194Z,4.50
2017-11-15T15:28:29.855Z,6.17
2017-11-15T15:30:56.490Z,5.23
2017-11-15T15:33:23.138Z,3.60
2017-11-15T15:35:49.770Z,4.10
2017-11-15T15:38:17.257Z,5.27
2017-11-15T15:40:43.964Z,4.00
2017-11-15T15:43:10.662Z,3.80
2017-11-15T15:45:37.310Z,5.40
2017-11-15T15:48:04.006Z,5.33
2017-11-15T15:50:30.643Z,3.63
2017-11-15T15:52:57.287Z,9.63
2017-11-15T15:55:23.943Z,4.63
2017-11-15T15:57:50.583Z,3.37
2017-11-15T16:00:17.245Z,6.07
2017-11-15T16:02:43.999Z,5.77
2017-11-15T16:05:10.706Z,6.50
2017-11-15T16:07:37.374Z,4.90
2017-11-15T16:10:04.043Z,3.33
2017-11-15T16:12:30.693Z,4.20
2017-11-15T16:14:57.345Z,5.00
2017-11-15T16:17:23.993Z,4.70
2017-11-15T16:19:50.621Z,5.27
2017-11-15T16:22:17.341Z,4.53
2017-11-15T16:24:44.321Z,4.20
2017-11-15T16:27:11.838Z,3.70
2017-11-15T16:29:38.485Z,4.03
2017-11-15T16:32:05.230Z,5.00
2017-11-15T16:34:31.880Z,4.70
2017-11-15T16:36:58.534Z,3.40
2017-11-15T16:39:25.185Z,3.37
2017-11-15T16:41:51.817Z,4.83
2017-11-15T16:44:18.509Z,4.90
2017-11-15T16:46:45.157Z,9.37
2017-11-15T16:49:12.030Z,3.73
2017-11-15T16:51:38.709Z,3.07
2017-11-15T16:54:05.394Z,3.67
2017-11-15T16:56:32.049Z,3.23
2017-11-15T16:58:58.680Z,4.57
2017-11-15T17:01:25.333Z,3.20
2017-11-15T17:03:51.971Z,4.33
2017-11-15T17:06:18.625Z,4.70
2017-11-15T17:08:45.623Z,4.50
2017-11-15T17:11:12.487Z,4.43
2017-11-15T17:13:39.118Z,3.73
2017-11-15T17:16:05.766Z,3.83
2017-11-15T17:18:32.417Z,4.70
2017-11-15T17:20:59.053Z,3.40
2017-11-15T17:23:25.701Z,3.43
2017-11-15T17:25:52.341Z,5.60
2017-11-15T17:28:18.993Z,5.97
2017-11-15T17:30:45.643Z,4.53
2017-11-15T17:33:12.447Z,5.00
2017-11-15T17:35:39.077Z,3.87
2017-11-15T17:38:05.714Z,5.37
2017-11-15T17:40:32.437Z,10.03
2017-11-15T17:42:59.126Z,9.43
2017-11-15T17:45:25.779Z,5.77
2017-11-15T17:47:52.409Z,9.53
2017-11-15T17:50:28.993Z,10.73
2017-11-15T17:52:55.680Z,7.83
2017-11-15T17:55:22.335Z,9.10
2017-11-15T17:57:49.134Z,7.90
2017-11-15T18:00:16.147Z,7.43
2017-11-15T18:02:42.881Z,10.87
2017-11-15T18:05:09.643Z,6.83
2017-11-15T18:07:36.278Z,5.83
2017-11-15T18:10:02.923Z,15.30
2017-11-15T18:12:29.569Z,5.53
2017-11-15T18:14:56.201Z,5.57
2017-11-15T18:17:22.850Z,7.30
2017-11-15T18:19:49.510Z,5.33
2017-11-15T18:22:16.289Z,6.30
2017-11-15T18:24:42.986Z,4.80
2017-11-15T18:27:09.692Z,5.90
2017-11-15T18:29:36.326Z,5.60
2017-11-15T18:32:02.971Z,4.37
2017-11-15T18:34:29.642Z,4.80
2017-11-15T18:36:56.295Z,7.23
2017-11-15T18:39:22.945Z,5.60
2017-11-15T18:41:49.766Z,3.57
2017-11-15T18:44:16.505Z,5.43
2017-11-15T18:46:43.921Z,6.70
2017-11-15T18:49:10.678Z,6.50
2017-11-15T18:51:37.314Z,5.80
2017-11-15T18:54:04.099Z,5.37
2017-11-15T18:56:30.737Z,4.33
2017-11-15T18:58:57.369Z,4.70
2017-11-15T19:01:24.023Z,5.17
2017-11-15T19:03:50.741Z,5.60
2017-11-15T19:06:17.457Z,5.00
2017-11-15T19:08:44.290Z,4.00
2017-11-15T19:11:10.969Z,5.00
2017-11-15T19:13:37.674Z,5.40
2017-11-15T19:16:04.389Z,5.97
2017-11-15T19:18:31.026Z,5.47
2017-11-15T19:20:57.672Z,3.60
2017-11-15T19:23:24.306Z,6.27
2017-11-15T19:25:51.006Z,4.00
2017-11-15T19:28:17.678Z,4.63
2017-11-15T19:30:44.565Z,5.53
2017-11-15T19:33:11.333Z,3.93
2017-11-15T19:35:38.065Z,4.33
2017-11-15T19:38:04.742Z,9.47
2017-11-15T19:40:31.383Z,4.33
2017-11-15T19:42:58.126Z,7.93
2017-11-15T19:45:24.766Z,4.87
2017-11-15T19:47:51.517Z,5.47
2017-11-15T19:50:18.290Z,4.50
2017-11-15T19:52:45.155Z,4.90
2017-11-15T19:55:11.822Z,4.53
2017-11-15T19:57:38.474Z,3.73
2017-11-15T20:00:05.227Z,5.30
2017-11-15T20:02:31.892Z,4.60
2017-11-15T20:04:58.547Z,3.90
2017-11-15T20:07:25.192Z,4.77
2017-11-15T20:09:51.834Z,7.30
2017-11-15T20:12:18.567Z,7.20
2017-11-15T20:14:45.247Z,4.13
2017-11-15T20:17:11.950Z,4.13
2017-11-15T20:19:38.586Z,4.00
2017-11-15T20:22:05.299Z,5.63
2017-11-15T20:24:31.929Z,5.80
2017-11-15T20:26:58.656Z,3.87
2017-11-15T20:29:25.298Z,4.40
2017-11-15T20:31:51.951Z,5.83
2017-11-15T20:34:18.639Z,7.27
2017-11-15T20:36:45.605Z,8.00
2017-11-15T20:39:12.273Z,4.23
2017-11-15T20:41:38.977Z,8.30
2017-11-15T20:44:05.641Z,5.77
2017-11-15T20:46:32.288Z,4.47
2017-11-15T20:48:58.933Z,4.20
2017-11-15T20:51:25.570Z,5.17
2017-11-15T20:53:52.225Z,4.90
2017-11-15T20:56:18.924Z,4.43
2017-11-15T20:58:45.619Z,4.07
2017-11-15T21:01:12.488Z,3.23
2017-11-15T21:03:39.127Z,5.40
2017-11-15T21:06:05.905Z,6.57
2017-11-15T21:08:32.616Z,4.67
2017-11-15T21:10:59.271Z,3.93
2017-11-15T21:13:25.910Z,3.60
2017-11-15T21:15:52.562Z,6.30
2017-11-15T21:18:19.305Z,3.93
2017-11-15T21:20:46.006Z,5.73
2017-11-15T21:23:12.711Z,4.73
2017-11-15T21:25:39.386Z,5.17
2017-11-15T21:28:06.249Z,5.47
2017-11-15T21:30:32.936Z,7.20
2017-11-15T21:32:59.601Z,5.97
2017-11-15T21:35:26.233Z,5.60
2017-11-15T21:37:52.962Z,6.50
2017-11-15T21:40:19.680Z,7.13
2017-11-15T21:42:46.419Z,6.17
2017-11-15T21:45:13.986Z,7.53
2017-11-15T21:47:40.646Z,9.10
2017-11-15T21:50:07.342Z,11.43
2017-11-15T21:52:34.108Z,19.00
2017-11-15T21:55:00.801Z,11.00
2017-11-15T21:57:27.441Z,5.20
2017-11-15T21:59:54.149Z,7.33
2017-11-15T22:02:20.794Z,10.97
2017-11-15T22:04:47.454Z,9.80
2017-11-15T22:07:14.244Z,7.83
2017-11-15T22:09:40.937Z,8.70
2017-11-15T22:12:07.609Z,6.67
2017-11-15T22:14:34.289Z,10.00
2017-11-15T22:17:01.009Z,9.90
2017-11-15T22:19:27.640Z,7.40
2017-11-15T22:21:54.293Z,5.40
2017-11-15T22:24:20.954Z,7.87
2017-11-15T22:26:48.040Z,6.37
2017-11-15T22:29:14.722Z,5.97
2017-11-15T22:31:41.412Z,6.67
2017-11-15T22:34:08.177Z,6.10
2017-11-15T22:36:34.960Z,7.63
2017-11-15T22:39:01.609Z,7.10
2017-11-15T22:41:28.352Z,10.93
2017-11-15T22:43:54.986Z,7.87
2017-11-15T22:46:21.741Z,8.07
2017-11-15T22:48:48.497Z,6.70
2017-11-15T22:51:15.250Z,10.23
2017-11-15T22:53:42.001Z,7.17
2017-11-15T22:56:08.753Z,7.07
2017-11-15T22:58:35.438Z,8.00
2017-11-15T23:01:02.156Z,8.50
2017-11-15T23:03:28.794Z,13.27
2017-11-15T23:05:55.439Z,6.70
2017-11-15T23:08:22.098Z,6.90
2017-11-15T23:10:48.781Z,8.00
2017-11-15T23:13:15.950Z,10.90
2017-11-15T23:15:42.601Z,6.80
2017-11-15T23:18:09.302Z,6.57
2017-11-15T23:20:35.947Z,8.47
2017-11-15T23:23:02.598Z,6.53
2017-11-15T23:25:29.238Z,6.00
2017-11-15T23:27:55.929Z,4.63
2017-11-15T23:30:22.561Z,5.17
2017-11-15T23:32:49.229Z,7.53
2017-11-15T23:35:15.894Z,5.80
2017-11-15T23:37:42.595Z,5.83
2017-11-15T23:40:09.266Z,12.23
2017-11-15T23:42:35.942Z,4.40
2017-11-15T23:45:02.590Z,4.57
2017-11-15T23:47:29.229Z,6.53
2017-11-15T23:49:55.881Z,7.00
2017-11-15T23:52:22.517Z,5.07
2017-11-15T23:54:49.186Z,5.80
2017-11-15T23:57:15.849Z,5.27
2017-11-15T23:59:42.528Z,8.17
